createdAt,value
2019-03-03T00:01:27.909Z,9.57
2019-03-03T00:04:00.224Z,15.87
2019-03-03T00:06:32.195Z,16.30
2019-03-03T00:09:05.183Z,14.33
2019-03-03T00:11:43.696Z,15.73
2019-03-03T00:14:18.171Z,11.47
2019-03-03T00:16:52.582Z,21.87
2019-03-03T00:19:26.023Z,14.50
2019-03-03T00:22:08.530Z,16.13
2019-03-03T00:24:40.313Z,12.10
2019-03-03T00:27:13.966Z,11.23
2019-03-03T00:29:48.208Z,12.83
2019-03-03T00:34:48.032Z,13.10
2019-03-03T00:37:26.875Z,15.13
2019-03-03T00:40:24.066Z,15.90
2019-03-03T00:43:13.275Z,10.60
2019-03-03T00:46:03.984Z,11.73
2019-03-03T00:48:55.092Z,10.63
2019-03-03T00:51:45.013Z,14.27
2019-03-03T00:54:45.155Z,13.70
2019-03-03T00:57:38.033Z,13.23
2019-03-03T01:00:51.078Z,12.27
2019-03-03T01:03:34.675Z,10.70
2019-03-03T01:06:28.188Z,9.27
2019-03-03T01:09:20.371Z,14.87
2019-03-03T01:12:15.832Z,10.63
2019-03-03T01:15:15.238Z,12.87
2019-03-03T01:18:16.684Z,9.83
2019-03-03T01:21:12.279Z,7.60
2019-03-03T01:24:04.329Z,8.77
2019-03-03T01:26:36.419Z,10.93
2019-03-03T01:29:08.242Z,8.73
2019-03-03T01:31:47.659Z,13.93
2019-03-03T01:34:19.981Z,10.53
2019-03-03T01:36:52.121Z,7.70
2019-03-03T01:39:24.964Z,14.43
2019-03-03T01:41:57.152Z,9.60
2019-03-03T01:44:29.871Z,12.10
2019-03-03T01:47:01.710Z,10.43
2019-03-03T01:49:33.477Z,9.37
2019-03-03T01:52:07.065Z,12.57
2019-03-03T01:54:40.546Z,11.80
2019-03-03T01:59:39.705Z,16.60
2019-03-03T02:02:11.862Z,10.93
2019-03-03T02:04:43.657Z,11.80
2019-03-03T02:07:15.706Z,8.77
2019-03-03T02:09:48.402Z,9.83
2019-03-03T02:12:20.174Z,12.10
2019-03-03T02:14:52.959Z,10.00
2019-03-03T02:17:24.993Z,18.50
2019-03-03T02:19:58.094Z,12.40
2019-03-03T02:22:30.901Z,11.13
2019-03-03T02:27:33.075Z,9.97
2019-03-03T02:30:09.250Z,10.50
2019-03-03T02:32:41.045Z,10.93
2019-03-03T02:35:14.598Z,13.90
2019-03-03T02:37:46.708Z,15.20
2019-03-03T02:40:19.478Z,14.93
2019-03-03T02:42:51.860Z,11.20
2019-03-03T02:45:24.517Z,13.73
2019-03-03T02:47:57.400Z,12.77
2019-03-03T02:50:29.013Z,10.63
2019-03-03T02:53:04.083Z,17.87
2019-03-03T02:55:36.468Z,11.33
2019-03-03T02:58:08.638Z,12.50
2019-03-03T03:00:49.100Z,11.57
2019-03-03T03:03:18.073Z,13.23
2019-03-03T03:06:25.686Z,12.77
2019-03-03T03:09:12.864Z,12.80
2019-03-03T03:12:06.761Z,9.27
2019-03-03T03:15:00.902Z,10.17
2019-03-03T03:18:05.532Z,11.77
2019-03-03T03:20:54.640Z,15.97
2019-03-03T03:23:43.461Z,11.63
2019-03-03T03:26:51.481Z,14.37
2019-03-03T03:29:48.933Z,14.87
2019-03-03T03:32:45.133Z,11.37
2019-03-03T03:35:42.223Z,10.17
2019-03-03T03:38:44.048Z,11.90
2019-03-03T03:41:48.349Z,13.60
2019-03-03T03:44:39.213Z,17.83
2019-03-03T03:47:23.563Z,14.77
2019-03-03T03:50:27.106Z,13.53
2019-03-03T03:53:10.980Z,11.37
2019-03-03T03:55:57.331Z,21.73
2019-03-03T03:59:01.961Z,11.90
2019-03-03T04:01:52.770Z,11.63
2019-03-03T04:04:52.638Z,13.80
2019-03-03T04:07:33.885Z,12.53
2019-03-03T04:13:17.791Z,14.03
2019-03-03T04:16:06.482Z,18.77
2019-03-03T04:19:03.601Z,11.43
2019-03-03T04:22:07.829Z,14.27
2019-03-03T04:25:00.932Z,15.30
2019-03-03T04:27:55.475Z,12.17
2019-03-03T04:30:37.388Z,12.70
2019-03-03T04:33:18.826Z,11.60
2019-03-03T04:36:30.290Z,13.83
2019-03-03T04:39:10.503Z,16.97
2019-03-03T04:42:05.179Z,17.33
2019-03-03T04:44:56.249Z,16.57
2019-03-03T04:47:53.772Z,22.23
2019-03-03T04:50:53.671Z,15.00
2019-03-03T04:53:40.744Z,13.63
2019-03-03T04:56:39.003Z,16.00
2019-03-03T04:59:27.682Z,13.73
2019-03-03T05:02:16.695Z,15.67
2019-03-03T05:05:00.517Z,14.27
2019-03-03T05:07:56.243Z,13.33
2019-03-03T05:13:00.317Z,17.17
2019-03-03T05:15:50.475Z,16.67
2019-03-03T05:18:47.067Z,15.83
2019-03-03T05:21:19.226Z,14.97
2019-03-03T05:23:51.423Z,20.90
2019-03-03T05:26:22.825Z,15.10
2019-03-03T05:28:54.367Z,12.70
2019-03-03T05:31:26.747Z,11.67
2019-03-03T05:33:58.860Z,17.70
2019-03-03T05:36:34.087Z,16.20
2019-03-03T05:39:07.487Z,14.03
2019-03-03T05:41:40.305Z,13.93
2019-03-03T05:44:12.329Z,14.13
2019-03-03T05:46:44.380Z,14.43
2019-03-03T05:49:16.748Z,16.90
2019-03-03T05:51:49.698Z,15.10
2019-03-03T05:54:24.376Z,12.60
2019-03-03T05:56:56.221Z,14.27
2019-03-03T05:59:28.492Z,16.93
2019-03-03T06:02:01.066Z,17.37
2019-03-03T06:04:33.703Z,17.20
2019-03-03T06:07:07.083Z,16.20
2019-03-03T06:09:40.423Z,11.90
2019-03-03T06:12:15.282Z,13.40
2019-03-03T06:14:47.288Z,14.83
2019-03-03T06:17:19.644Z,18.73
2019-03-03T06:19:54.315Z,20.53
2019-03-03T06:22:27.882Z,16.30
2019-03-03T06:25:00.665Z,17.90
2019-03-03T06:27:33.468Z,15.17
2019-03-03T06:30:09.333Z,13.27
2019-03-03T06:32:40.785Z,12.70
2019-03-03T06:35:13.177Z,19.13
2019-03-03T06:37:45.174Z,13.60
2019-03-03T06:40:18.212Z,20.23
2019-03-03T06:42:50.613Z,17.37
2019-03-03T06:45:22.991Z,20.30
2019-03-03T06:47:55.564Z,17.37
2019-03-03T06:50:27.400Z,17.50
2019-03-03T06:52:59.586Z,23.00
2019-03-03T06:55:33.284Z,21.23
2019-03-03T06:58:05.749Z,16.57
2019-03-03T07:00:38.501Z,17.93
2019-03-03T07:03:12.163Z,12.20
2019-03-03T07:05:46.018Z,19.97
2019-03-03T07:08:17.371Z,16.80
2019-03-03T07:10:49.068Z,17.37
2019-03-03T07:13:20.436Z,16.97
2019-03-03T07:15:52.567Z,16.80
2019-03-03T07:18:24.345Z,18.50
2019-03-03T07:20:55.869Z,20.07
2019-03-03T07:23:27.456Z,15.30
2019-03-03T07:26:02.305Z,16.07
2019-03-03T07:28:35.154Z,12.10
2019-03-03T07:31:06.671Z,17.13
2019-03-03T07:33:41.984Z,18.93
2019-03-03T07:36:15.682Z,17.43
2019-03-03T07:38:47.817Z,15.27
2019-03-03T07:41:22.673Z,11.37
2019-03-03T07:43:55.698Z,16.70
2019-03-03T07:46:28.346Z,19.53
2019-03-03T07:49:02.226Z,13.77
2019-03-03T07:51:35.861Z,19.37
2019-03-03T07:54:10.432Z,15.00
2019-03-03T07:56:50.529Z,13.50
2019-03-03T07:59:24.569Z,16.07
2019-03-03T08:01:58.019Z,19.17
2019-03-03T08:04:31.446Z,19.47
2019-03-03T08:07:05.027Z,15.13
2019-03-03T08:09:39.534Z,8.63
2019-03-03T08:12:14.038Z,11.77
2019-03-03T08:14:48.503Z,11.00
2019-03-03T08:17:22.339Z,15.47
2019-03-03T08:19:57.663Z,15.00
2019-03-03T08:22:30.061Z,14.10
2019-03-03T08:25:04.337Z,15.73
2019-03-03T08:27:39.204Z,14.67
2019-03-03T08:30:13.086Z,12.23
2019-03-03T08:32:46.029Z,13.57
2019-03-03T08:35:19.215Z,9.37
2019-03-03T08:37:51.981Z,21.67
2019-03-03T08:40:27.816Z,15.97
2019-03-03T08:43:08.123Z,11.23
2019-03-03T08:46:02.714Z,12.90
2019-03-03T08:49:05.341Z,14.33
2019-03-03T08:52:14.162Z,11.77
2019-03-03T08:58:47.993Z,11.77
2019-03-03T09:01:36.411Z,13.23
2019-03-03T09:06:42.605Z,14.27
2019-03-03T09:09:40.255Z,13.57
2019-03-03T09:12:40.961Z,8.97
2019-03-03T09:15:54.984Z,11.43
2019-03-03T09:18:47.693Z,11.43
2019-03-03T09:21:41.507Z,11.73
2019-03-03T09:24:45.726Z,7.43
2019-03-03T09:27:57.450Z,11.07
2019-03-03T09:30:46.801Z,11.73
2019-03-03T09:33:52.110Z,10.90
2019-03-03T09:36:42.895Z,8.63
2019-03-03T09:39:34.007Z,6.93
2019-03-03T09:42:32.192Z,11.90
2019-03-03T09:45:26.328Z,12.20
2019-03-03T09:48:04.312Z,10.90
2019-03-03T09:50:53.094Z,8.40
2019-03-03T09:54:00.097Z,12.63
2019-03-03T09:56:56.695Z,12.13
2019-03-03T09:59:54.229Z,9.53
2019-03-03T10:03:02.621Z,9.07
2019-03-03T10:06:05.661Z,10.33
2019-03-03T10:08:59.873Z,9.73
2019-03-03T10:12:11.571Z,11.60
2019-03-03T10:14:53.852Z,9.07
2019-03-03T10:17:47.261Z,9.33
2019-03-03T10:20:29.440Z,8.23
2019-03-03T10:23:25.561Z,11.10
2019-03-03T10:26:17.540Z,9.07
2019-03-03T10:28:58.594Z,8.77
2019-03-03T10:31:51.582Z,8.07
2019-03-03T10:34:59.066Z,6.80
2019-03-03T10:37:43.929Z,5.83
2019-03-03T10:40:42.207Z,7.40
2019-03-03T10:43:32.728Z,8.07
2019-03-03T10:46:22.440Z,7.90
2019-03-03T10:49:15.367Z,7.07
2019-03-03T10:59:27.384Z,6.80
2019-03-03T11:02:23.221Z,7.93
2019-03-03T11:05:20.253Z,6.93
2019-03-03T11:08:21.178Z,5.40
2019-03-03T11:11:15.974Z,5.43
2019-03-03T11:13:59.497Z,6.40
2019-03-03T11:16:47.488Z,5.03
2019-03-03T11:19:33.379Z,4.17
2019-03-03T11:22:20.143Z,4.10
2019-03-03T11:25:12.326Z,7.50
2019-03-03T11:28:23.517Z,5.13
2019-03-03T11:31:03.056Z,5.00
2019-03-03T11:33:47.271Z,3.80
2019-03-03T11:36:49.237Z,4.23
2019-03-03T11:39:47.368Z,5.13
2019-03-03T11:42:35.490Z,6.00
2019-03-03T11:45:33.928Z,4.37
2019-03-03T11:48:27.862Z,3.87
2019-03-03T11:51:05.740Z,4.43
2019-03-03T11:54:07.200Z,4.17
2019-03-03T11:57:00.740Z,4.50
2019-03-03T12:00:00.896Z,5.50
2019-03-03T12:02:54.750Z,6.07
2019-03-03T12:05:38.720Z,4.93
2019-03-03T12:08:29.137Z,6.90
2019-03-03T12:11:24.793Z,3.63
2019-03-03T12:14:15.311Z,5.40
2019-03-03T12:17:11.198Z,7.07
2019-03-03T12:19:51.133Z,5.13
2019-03-03T12:22:33.675Z,4.27
2019-03-03T12:25:21.790Z,6.77
2019-03-03T12:28:12.308Z,4.57
2019-03-03T12:31:01.036Z,5.93
2019-03-03T12:33:56.229Z,5.27
2019-03-03T12:36:54.109Z,6.67
2019-03-03T12:39:32.768Z,2.93
2019-03-03T12:42:34.856Z,8.60
2019-03-03T12:45:17.560Z,4.50
2019-03-03T12:48:02.306Z,6.87
2019-03-03T12:50:54.241Z,5.73
2019-03-03T12:53:47.401Z,6.23
2019-03-03T12:56:45.783Z,7.40
2019-03-03T12:59:41.699Z,7.07
2019-03-03T13:02:49.392Z,8.20
2019-03-03T13:05:34.627Z,4.03
2019-03-03T13:08:28.777Z,8.67
2019-03-03T13:11:18.636Z,7.40
2019-03-03T13:14:11.032Z,7.30
2019-03-03T13:17:03.507Z,5.90
2019-03-03T13:22:10.533Z,5.87
2019-03-03T13:25:02.810Z,10.17
2019-03-03T13:27:45.530Z,9.00
2019-03-03T13:30:32.434Z,5.90
2019-03-03T13:33:13.573Z,5.90
2019-03-03T13:36:18.287Z,7.73
2019-03-03T13:39:00.386Z,8.10
2019-03-03T13:41:48.532Z,10.37
2019-03-03T13:44:19.273Z,10.53
2019-03-03T13:47:00.941Z,10.33
2019-03-03T13:49:31.780Z,6.73
2019-03-03T13:52:03.453Z,7.73
2019-03-03T13:54:40.114Z,8.87
2019-03-03T13:57:11.475Z,12.13
2019-03-03T13:59:43.109Z,11.03
2019-03-03T14:02:15.185Z,12.77
2019-03-03T14:04:45.976Z,10.27
2019-03-03T14:07:23.121Z,9.57
2019-03-03T14:09:56.232Z,10.33
2019-03-03T14:12:26.966Z,9.17
2019-03-03T14:15:02.358Z,8.77
2019-03-03T14:17:34.977Z,16.07
2019-03-03T14:20:10.688Z,10.70
2019-03-03T14:22:42.173Z,11.63
2019-03-03T14:25:13.067Z,13.77
2019-03-03T14:27:43.597Z,11.63
2019-03-03T14:30:16.761Z,13.83
2019-03-03T14:32:47.404Z,10.17
2019-03-03T14:35:18.182Z,17.30
2019-03-03T14:37:50.647Z,17.10
2019-03-03T14:40:23.440Z,15.50
2019-03-03T14:42:54.251Z,9.60
2019-03-03T14:45:24.978Z,9.73
2019-03-03T14:47:56.921Z,10.13
2019-03-03T14:50:27.849Z,7.97
2019-03-03T14:52:58.484Z,13.40
2019-03-03T14:55:30.844Z,12.37
2019-03-03T14:58:01.605Z,12.53
2019-03-03T15:00:33.964Z,9.53
2019-03-03T15:03:06.662Z,12.87
2019-03-03T15:05:40.417Z,9.37
2019-03-03T15:08:15.713Z,11.80
2019-03-03T15:10:46.913Z,12.87
2019-03-03T15:13:17.995Z,10.93
2019-03-03T15:15:50.038Z,15.07
2019-03-03T15:18:20.807Z,9.57
2019-03-03T15:20:51.609Z,16.37
2019-03-03T15:23:22.368Z,11.60
2019-03-03T15:25:54.384Z,14.37
2019-03-03T15:28:25.180Z,13.30
2019-03-03T15:30:55.819Z,11.27
2019-03-03T15:33:28.730Z,11.00
2019-03-03T15:35:59.396Z,11.73
2019-03-03T15:38:31.386Z,7.50
2019-03-03T15:41:02.019Z,14.67
2019-03-03T15:43:33.346Z,16.40
2019-03-03T15:46:05.314Z,13.43
2019-03-03T15:48:36.153Z,14.57
2019-03-03T15:51:06.883Z,14.63
2019-03-03T15:53:39.405Z,11.53
2019-03-03T15:56:10.504Z,10.80
2019-03-03T15:58:41.350Z,13.77
2019-03-03T16:01:16.074Z,22.47
2019-03-03T16:03:46.831Z,12.30
2019-03-03T16:06:18.091Z,14.93
2019-03-03T16:08:48.655Z,12.30
2019-03-03T16:11:20.752Z,11.47
2019-03-03T16:13:52.019Z,12.63
2019-03-03T16:16:22.728Z,13.60
2019-03-03T16:18:56.285Z,14.87
2019-03-03T16:21:29.369Z,18.87
2019-03-03T16:24:00.892Z,13.37
2019-03-03T16:26:32.471Z,13.10
2019-03-03T16:29:04.235Z,12.50
2019-03-03T16:31:41.412Z,14.87
2019-03-03T16:34:12.648Z,13.93
2019-03-03T16:36:44.460Z,11.60
2019-03-03T16:39:15.087Z,15.87
2019-03-03T16:41:46.853Z,14.10
2019-03-03T16:44:17.709Z,10.83
2019-03-03T16:46:48.813Z,12.43
2019-03-03T16:49:29.935Z,9.37
2019-03-03T16:52:02.475Z,11.60
2019-03-03T16:54:34.681Z,13.17
2019-03-03T16:57:05.363Z,12.57
2019-03-03T16:59:35.967Z,12.03
2019-03-03T17:02:06.551Z,12.90
2019-03-03T17:04:37.167Z,15.83
2019-03-03T17:07:07.875Z,10.37
2019-03-03T17:09:38.574Z,12.53
2019-03-03T17:12:09.317Z,16.23
2019-03-03T17:14:40.194Z,13.40
2019-03-03T17:17:10.812Z,10.33
2019-03-03T17:19:41.871Z,10.63
2019-03-03T17:22:12.981Z,7.87
2019-03-03T17:24:44.942Z,12.20
2019-03-03T17:27:16.028Z,7.87
2019-03-03T17:29:46.935Z,13.33
2019-03-03T17:32:17.558Z,13.80
2019-03-03T17:34:48.159Z,12.70
2019-03-03T17:37:18.837Z,15.07
2019-03-03T17:39:51.518Z,13.47
2019-03-03T17:42:22.520Z,9.90
2019-03-03T17:44:53.219Z,9.33
2019-03-03T17:47:24.670Z,15.67
2019-03-03T17:49:55.324Z,15.53
2019-03-03T17:52:25.900Z,13.53
2019-03-03T17:54:56.786Z,15.37
2019-03-03T17:57:27.414Z,12.37
2019-03-03T17:59:59.126Z,9.47
2019-03-03T18:02:29.813Z,10.10
2019-03-03T18:05:00.539Z,16.10
2019-03-03T18:07:31.857Z,11.37
2019-03-03T18:10:02.612Z,10.30
2019-03-03T18:12:33.333Z,11.97
2019-03-03T18:15:04.272Z,13.47
2019-03-03T18:17:36.095Z,12.00
2019-03-03T18:20:07.674Z,11.63
2019-03-03T18:22:39.496Z,12.80
2019-03-03T18:25:16.442Z,10.23
2019-03-03T18:27:47.921Z,12.03
2019-03-03T18:30:20.895Z,9.83
2019-03-03T18:32:51.622Z,10.10
2019-03-03T18:35:22.519Z,16.77
2019-03-03T18:37:53.352Z,15.23
2019-03-03T18:40:24.130Z,12.27
2019-03-03T18:42:55.134Z,11.47
2019-03-03T18:45:27.198Z,13.47
2019-03-03T18:47:58.100Z,13.20
2019-03-03T18:50:29.238Z,10.10
2019-03-03T18:53:00.797Z,12.10
2019-03-03T18:55:31.793Z,13.30
2019-03-03T18:58:02.887Z,16.00
2019-03-03T19:00:34.995Z,13.87
2019-03-03T19:03:07.019Z,13.07
2019-03-03T19:05:43.955Z,13.93
2019-03-03T19:08:15.037Z,15.47
2019-03-03T19:10:47.149Z,14.67
2019-03-03T19:13:21.705Z,13.70
2019-03-03T19:15:52.481Z,12.27
2019-03-03T19:18:23.425Z,11.83
2019-03-03T19:20:55.716Z,10.93
2019-03-03T19:23:26.472Z,14.33
2019-03-03T19:25:57.027Z,10.20
2019-03-03T19:28:28.714Z,15.83
2019-03-03T19:30:59.381Z,12.47
2019-03-03T19:33:35.339Z,9.93
2019-03-03T19:36:05.996Z,11.43
2019-03-03T19:38:36.836Z,12.67
2019-03-03T19:41:09.732Z,9.93
2019-03-03T19:43:40.432Z,10.20
2019-03-03T19:46:11.586Z,15.63
2019-03-03T19:48:44.376Z,14.73
2019-03-03T19:51:16.592Z,9.73
2019-03-03T19:53:50.485Z,15.20
2019-03-03T19:56:24.264Z,13.43
2019-03-03T19:58:55.036Z,10.67
2019-03-03T20:01:25.626Z,9.63
2019-03-03T20:03:59.698Z,11.00
2019-03-03T20:06:30.725Z,9.50
2019-03-03T20:09:02.705Z,11.23
2019-03-03T20:11:34.979Z,10.60
2019-03-03T20:14:05.749Z,8.17
2019-03-03T20:16:38.600Z,9.43
2019-03-03T20:19:09.387Z,10.00
2019-03-03T20:21:40.254Z,13.43
2019-03-03T20:24:10.976Z,6.17
2019-03-03T20:26:41.702Z,7.30
2019-03-03T20:29:12.336Z,7.50
2019-03-03T20:31:43.305Z,8.73
2019-03-03T20:34:14.068Z,9.20
2019-03-03T20:36:44.936Z,10.87
2019-03-03T20:39:15.776Z,7.73
2019-03-03T20:41:46.746Z,6.60
2019-03-03T20:44:23.749Z,7.53
2019-03-03T20:46:54.643Z,5.90
2019-03-03T20:49:26.292Z,8.37
2019-03-03T20:51:57.744Z,6.13
2019-03-03T20:54:28.295Z,6.70
2019-03-03T20:56:59.116Z,7.97
2019-03-03T20:59:29.833Z,7.63
2019-03-03T21:02:00.499Z,4.77
2019-03-03T21:04:31.159Z,7.20
2019-03-03T21:07:01.947Z,7.80
2019-03-03T21:09:32.600Z,6.83
2019-03-03T21:12:04.234Z,5.57
2019-03-03T21:14:35.438Z,7.33
2019-03-03T21:17:06.193Z,6.27
2019-03-03T21:19:36.928Z,5.77
2019-03-03T21:22:08.463Z,8.33
2019-03-03T21:24:40.381Z,7.40
2019-03-03T21:27:12.872Z,7.37
2019-03-03T21:29:45.000Z,5.30
2019-03-03T21:32:17.476Z,8.43
2019-03-03T21:34:49.048Z,6.93
2019-03-03T21:37:20.604Z,6.60
2019-03-03T21:39:52.459Z,4.07
2019-03-03T21:42:24.815Z,5.70
2019-03-03T21:44:55.960Z,5.80
2019-03-03T21:47:27.982Z,6.77
2019-03-03T21:49:59.706Z,6.90
2019-03-03T21:52:33.016Z,5.57
2019-03-03T21:55:04.469Z,6.90
2019-03-03T21:57:39.371Z,7.70
2019-03-03T22:00:36.469Z,8.53
2019-03-03T22:03:09.106Z,5.37
2019-03-03T22:05:41.052Z,4.40
2019-03-03T22:08:12.927Z,6.80
2019-03-03T22:10:44.334Z,4.93
2019-03-03T22:13:16.126Z,5.40
2019-03-03T22:15:48.230Z,8.80
2019-03-03T22:18:19.487Z,7.17
2019-03-03T22:20:52.104Z,7.87
2019-03-03T22:23:24.255Z,5.57
2019-03-03T22:25:56.248Z,4.53
2019-03-03T22:28:28.037Z,3.53
2019-03-03T22:30:59.652Z,5.50
2019-03-03T22:33:31.553Z,6.30
2019-03-03T22:36:03.143Z,5.80
2019-03-03T22:38:35.489Z,4.37
2019-03-03T22:41:07.584Z,8.00
2019-03-03T22:43:39.927Z,6.30
2019-03-03T22:46:14.081Z,7.03
2019-03-03T22:48:45.101Z,5.57
2019-03-03T22:51:16.285Z,7.20
2019-03-03T22:53:47.540Z,6.50
2019-03-03T22:56:20.687Z,7.37
2019-03-03T22:58:52.683Z,4.60
2019-03-03T23:01:27.110Z,5.60
2019-03-03T23:04:32.464Z,5.33
2019-03-03T23:07:17.109Z,8.40
2019-03-03T23:10:28.855Z,5.50
2019-03-03T23:13:29.640Z,5.60
2019-03-03T23:16:10.555Z,7.53
2019-03-03T23:19:46.858Z,8.63
2019-03-03T23:23:14.554Z,5.03
2019-03-03T23:25:53.328Z,4.17
2019-03-03T23:28:26.095Z,6.03
2019-03-03T23:30:58.370Z,5.83
2019-03-03T23:33:30.866Z,5.93
2019-03-03T23:36:02.880Z,8.40
2019-03-03T23:38:34.231Z,5.40
2019-03-03T23:41:05.652Z,7.83
2019-03-03T23:43:37.373Z,4.63
2019-03-03T23:46:14.609Z,6.93
2019-03-03T23:48:46.319Z,5.90
2019-03-03T23:51:17.862Z,7.67
2019-03-03T23:53:50.750Z,7.87
2019-03-03T23:56:22.243Z,9.50
2019-03-03T23:58:54.011Z,7.87
